Private Wetterstation Sandau
Wetterdaten: Woche 24.09.12 - 30.09.12 (KW39)
Datum Zeit Temp. A. Feuchte A. Luftdruck Regen Wind Richtung Taupunkt Windchill
24.09.2012 00:00 10,7 C 69 % 1012,6 hPa 0,0 l/m 3,8 km/h (1 Bft) O-SO 5,1 C 10,7 C
24.09.2012 01:00 10,2 C 74 % 1011,9 hPa 0,5 l/m 3,5 km/h (1 Bft) SO 5,7 C 10,2 C
24.09.2012 02:00 9,3 C 82 % 1010,7 hPa 2,6 l/m 9,1 km/h (2 Bft) O-SO 6,4 C 8,1 C
24.09.2012 03:00 9,3 C 82 % 1009,6 hPa 0,0 l/m 8,6 km/h (2 Bft) O-NO 6,4 C 8,2 C
24.09.2012 04:00 9,4 C 81 % 1008,9 hPa 0,0 l/m 7,0 km/h (2 Bft) O 6,4 C 8,7 C
24.09.2012 05:00 9,4 C 83 % 1007,3 hPa 1,0 l/m 12,4 km/h (3 Bft) O 6,5 C 7,7 C
24.09.2012 06:00 9,7 C 81 % 1006,1 hPa 0,0 l/m 10,6 km/h (2 Bft) O-SO 6,5 C 8,3 C
24.09.2012 07:00 9,8 C 79 % 1005,4 hPa 0,0 l/m 10,8 km/h (2 Bft) O-SO 6,4 C 8,4 C
24.09.2012 08:00 10,0 C 78 % 1004,1 hPa 0,0 l/m 9,4 km/h (2 Bft) SO 6,4 C 9,2 C
24.09.2012 09:00 10,7 C 76 % 1003,3 hPa 0,0 l/m 13,0 km/h (3 Bft) O-SO 6,6 C 10,7 C
24.09.2012 10:00 11,6 C 74 % 1003,3 hPa 0,0 l/m 8,1 km/h (2 Bft) O-NO 7,0 C 11,6 C
24.09.2012 11:00 12,3 C 71 % 1002,6 hPa 0,0 l/m 9,7 km/h (2 Bft) O-SO 7,3 C 12,3 C
24.09.2012 12:00 13,1 C 70 % 1001,9 hPa 0,0 l/m 13,5 km/h (3 Bft) O 7,6 C 13,1 C
24.09.2012 13:00 13,9 C 69 % 1001,1 hPa 0,0 l/m 13,0 km/h (3 Bft) SO 8,3 C 13,9 C
24.09.2012 14:00 14,1 C 73 % 1000,2 hPa 0,0 l/m 11,2 km/h (2 Bft) SO 9,3 C 14,1 C
24.09.2012 15:00 12,7 C 83 % 999,6 hPa 0,0 l/m 13,3 km/h (3 Bft) SO 9,9 C 12,7 C
24.09.2012 16:00 12,7 C 84 % 999,3 hPa 0,0 l/m 8,1 km/h (2 Bft) SO 10,1 C 12,7 C
24.09.2012 17:00 12,7 C 86 % 998,8 hPa 1,0 l/m 10,1 km/h (2 Bft) O 10,4 C 12,7 C
24.09.2012 18:00 12,4 C 89 % 998,2 hPa 0,5 l/m 10,6 km/h (2 Bft) O 10,7 C 12,4 C
24.09.2012 19:00 12,6 C 89 % 998,0 hPa 0,0 l/m 8,2 km/h (2 Bft) O-SO 10,8 C 12,6 C
24.09.2012 20:00 13,0 C 89 % 998,1 hPa 1,0 l/m 6,1 km/h (2 Bft) SO 11,1 C 13,0 C
24.09.2012 21:00 13,3 C 89 % 998,5 hPa 0,0 l/m 3,6 km/h (1 Bft) SO 11,6 C 13,3 C
24.09.2012 22:00 13,7 C 90 % 999,3 hPa 0,0 l/m 4,6 km/h (1 Bft) S-SW 12,1 C 13,7 C
24.09.2012 23:00 14,3 C 88 % 1000,1 hPa 0,0 l/m 5,7 km/h (1 Bft) W-SW 12,4 C 14,3 C
25.09.2012 00:00 13,9 C 82 % 1001,2 hPa 0,0 l/m 10,8 km/h (2 Bft) W-SW 10,8 C 13,9 C
25.09.2012 01:00 12,4 C 81 % 1001,8 hPa 0,0 l/m 3,7 km/h (1 Bft) S 9,2 C 12,4 C
25.09.2012 02:00 10,9 C 83 % 1002,3 hPa 0,0 l/m 2,9 km/h (1 Bft) S 8,2 C 10,9 C
25.09.2012 03:00 10,2 C 85 % 1002,4 hPa 0,0 l/m 4,9 km/h (1 Bft) S-SO 7,8 C 10,2 C
25.09.2012 04:00 9,9 C 86 % 1002,3 hPa 0,0 l/m 5,4 km/h (1 Bft) S-SW 7,8 C 9,6 C
25.09.2012 05:00 9,9 C 87 % 1002,1 hPa 0,0 l/m 5,8 km/h (2 Bft) S-SW 7,8 C 9,3 C
25.09.2012 06:00 10,0 C 87 % 1001,9 hPa 0,0 l/m 6,8 km/h (2 Bft) S 7,9 C 9,5 C
25.09.2012 07:00 10,3 C 86 % 1001,7 hPa 0,0 l/m 6,1 km/h (2 Bft) S 8,0 C 10,3 C
25.09.2012 08:00 11,3 C 84 % 1001,7 hPa 0,0 l/m 7,3 km/h (2 Bft) S 8,7 C 11,3 C
25.09.2012 09:00 13,2 C 79 % 1001,6 hPa 0,0 l/m 9,2 km/h (2 Bft) S-SO 9,7 C 13,2 C
25.09.2012 10:00 15,2 C 74 % 1001,8 hPa 0,0 l/m 9,3 km/h (2 Bft) S-SO 10,6 C 15,2 C
25.09.2012 11:00 17,2 C 68 % 1001,8 hPa 0,0 l/m 15,3 km/h (3 Bft) S-SW 11,2 C 17,2 C
25.09.2012 12:00 18,4 C 64 % 1001,7 hPa 0,0 l/m 10,4 km/h (2 Bft) S-SO 11,6 C 18,4 C
25.09.2012 13:00 19,6 C 61 % 1001,5 hPa 0,0 l/m 13,2 km/h (3 Bft) S 11,8 C 19,6 C
25.09.2012 14:00 20,8 C 56 % 1001,4 hPa 0,0 l/m 12,6 km/h (3 Bft) S-SW 11,6 C 20,8 C
25.09.2012 15:00 20,3 C 57 % 1001,4 hPa 0,0 l/m 6,5 km/h (2 Bft) S 11,4 C 20,3 C
25.09.2012 16:00 19,0 C 63 % 1001,4 hPa 1,0 l/m 6,0 km/h (2 Bft) W-SW 11,7 C 19,0 C
25.09.2012 17:00 16,9 C 75 % 1001,4 hPa 0,0 l/m 1,5 km/h (1 Bft) W-SW 12,4 C 16,9 C
25.09.2012 18:00 16,1 C 80 % 1001,4 hPa 0,0 l/m 2,9 km/h (1 Bft) S 12,5 C 16,1 C
25.09.2012 19:00 15,6 C 80 % 1002,2 hPa 0,0 l/m 3,5 km/h (1 Bft) W 12,1 C 15,6 C
25.09.2012 20:00 15,1 C 81 % 1003,1 hPa 0,0 l/m 2,0 km/h (1 Bft) W-SW 11,8 C 15,1 C
25.09.2012 21:00 14,6 C 82 % 1003,5 hPa 0,0 l/m 0,8 km/h (0 Bft) S-SW 11,5 C 14,6 C
25.09.2012 22:00 14,0 C 84 % 1003,6 hPa 0,0 l/m 3,2 km/h (1 Bft) S-SO 11,3 C 14,0 C
25.09.2012 23:00 13,7 C 84 % 1003,9 hPa 0,0 l/m 4,3 km/h (1 Bft) S-SW 11,0 C 13,7 C
26.09.2012 00:00 13,4 C 84 % 1003,8 hPa 0,0 l/m 3,8 km/h (1 Bft) S-SO 10,7 C 13,4 C
26.09.2012 01:00 12,9 C 84 % 1003,8 hPa 0,0 l/m 2,6 km/h (1 Bft) S-SO 10,3 C 12,9 C
26.09.2012 02:00 11,9 C 84 % 1004,2 hPa 0,0 l/m 0,6 km/h (0 Bft) S-SW 9,4 C 11,9 C
26.09.2012 03:00 11,6 C 87 % 1003,5 hPa 0,0 l/m 2,7 km/h (1 Bft) SO 9,5 C 11,6 C
26.09.2012 04:00 11,5 C 88 % 1002,9 hPa 0,0 l/m 1,9 km/h (1 Bft) O-NO 9,5 C 11,5 C
26.09.2012 05:00 11,3 C 89 % 1002,2 hPa 0,0 l/m 6,0 km/h (2 Bft) SO 9,6 C 11,3 C
26.09.2012 06:00 12,3 C 90 % 1002,0 hPa 0,0 l/m 4,1 km/h (1 Bft) O-SO 10,7 C 12,3 C
26.09.2012 07:00 12,5 C 90 % 1002,2 hPa 0,0 l/m 1,7 km/h (1 Bft) SO 11,0 C 12,5 C
26.09.2012 08:00 13,3 C 90 % 1002,6 hPa 0,0 l/m 3,1 km/h (1 Bft) SO 11,7 C 13,3 C
26.09.2012 09:00 14,0 C 90 % 1002,6 hPa 0,0 l/m 2,0 km/h (1 Bft) O-SO 12,3 C 14,0 C
26.09.2012 10:00 15,2 C 87 % 1002,2 hPa 0,0 l/m 4,0 km/h (1 Bft) SO 13,0 C 15,2 C
26.09.2012 11:00 17,2 C 79 % 1001,8 hPa 0,0 l/m 7,4 km/h (2 Bft) SO 13,5 C 17,2 C
26.09.2012 12:00 18,9 C 71 % 1001,3 hPa 0,0 l/m 10,5 km/h (2 Bft) S-SO 13,5 C 18,9 C
26.09.2012 13:00 19,5 C 70 % 1001,3 hPa 0,0 l/m 4,9 km/h (1 Bft) S-SO 13,8 C 19,5 C
26.09.2012 14:00 20,3 C 68 % 1001,0 hPa 0,0 l/m 5,4 km/h (1 Bft) S-SO 14,2 C 20,3 C
26.09.2012 15:00 20,3 C 68 % 1001,1 hPa 0,0 l/m 6,4 km/h (2 Bft) S 14,3 C 20,3 C
26.09.2012 16:00 19,4 C 72 % 1001,8 hPa 0,0 l/m 6,1 km/h (2 Bft) W-SW 14,2 C 19,4 C
26.09.2012 17:00 18,6 C 74 % 1002,3 hPa 0,0 l/m 5,1 km/h (1 Bft) W-NW 13,9 C 18,6 C
26.09.2012 18:00 17,2 C 73 % 1002,5 hPa 0,0 l/m 2,7 km/h (1 Bft) W-NW 12,2 C 17,2 C
26.09.2012 19:00 16,0 C 76 % 1002,7 hPa 0,0 l/m 0,3 km/h (0 Bft) NW 11,8 C 16,0 C
26.09.2012 20:00 15,2 C 79 % 1003,5 hPa 0,0 l/m 0,3 km/h (0 Bft) W-NW 11,6 C 15,2 C
26.09.2012 21:00 14,5 C 82 % 1004,0 hPa 0,0 l/m 0,5 km/h (0 Bft) W 11,5 C 14,5 C
26.09.2012 22:00 14,2 C 85 % 1004,3 hPa 0,0 l/m 0,4 km/h (0 Bft) W 11,7 C 14,2 C
26.09.2012 23:00 13,9 C 86 % 1004,4 hPa 0,0 l/m 0,1 km/h (0 Bft) W 11,6 C 13,9 C
27.09.2012 00:00 13,7 C 87 % 1004,2 hPa 0,0 l/m 0,3 km/h (0 Bft) W 11,6 C 13,7 C
27.09.2012 01:00 13,6 C 87 % 1004,2 hPa 0,0 l/m 2,1 km/h (1 Bft) W 11,4 C 13,6 C
27.09.2012 02:00 13,4 C 87 % 1004,0 hPa 0,5 l/m 1,8 km/h (1 Bft) S-SW 11,2 C 13,4 C
27.09.2012 03:00 13,1 C 88 % 1003,8 hPa 0,0 l/m 0,7 km/h (0 Bft) N 11,0 C 13,1 C
27.09.2012 04:00 12,9 C 89 % 1004,1 hPa 0,5 l/m 1,6 km/h (1 Bft) S-SO 11,1 C 12,9 C
27.09.2012 05:00 12,8 C 90 % 1004,1 hPa 1,0 l/m 2,0 km/h (1 Bft) W-SW 11,2 C 12,8 C
27.09.2012 06:00 12,5 C 90 % 1005,2 hPa 3,6 l/m 6,3 km/h (2 Bft) W-SW 10,9 C 12,5 C
27.09.2012 07:00 12,3 C 91 % 1005,7 hPa 2,1 l/m 6,0 km/h (2 Bft) W-SW 10,9 C 12,3 C
27.09.2012 08:00 12,3 C 91 % 1006,1 hPa 0,5 l/m 3,8 km/h (1 Bft) S-SW 10,9 C 12,3 C
27.09.2012 09:00 12,7 C 91 % 1006,3 hPa 0,0 l/m 4,8 km/h (1 Bft) W-SW 11,2 C 12,7 C
27.09.2012 10:00 13,8 C 89 % 1006,3 hPa 0,0 l/m 7,1 km/h (2 Bft) S-SW 12,0 C 13,8 C
27.09.2012 11:00 15,2 C 81 % 1006,1 hPa 0,0 l/m 12,7 km/h (3 Bft) W-SW 12,0 C 15,2 C
27.09.2012 12:00 15,8 C 76 % 1006,1 hPa 0,0 l/m 10,7 km/h (2 Bft) SW 11,6 C 15,8 C
27.09.2012 13:00 16,1 C 75 % 1006,2 hPa 0,0 l/m 8,8 km/h (2 Bft) S-SW 11,7 C 16,1 C
27.09.2012 14:00 15,8 C 74 % 1006,3 hPa 0,0 l/m 12,4 km/h (3 Bft) SW 11,2 C 15,8 C
27.09.2012 15:00 16,5 C 71 % 1006,2 hPa 0,0 l/m 11,5 km/h (2 Bft) S-SW 11,3 C 16,5 C
27.09.2012 16:00 16,5 C 71 % 1006,0 hPa 0,0 l/m 9,8 km/h (2 Bft) W-SW 11,2 C 16,5 C
27.09.2012 17:00 16,5 C 69 % 1005,9 hPa 0,0 l/m 12,7 km/h (3 Bft) SW 10,8 C 16,5 C
27.09.2012 18:00 15,2 C 71 % 1006,3 hPa 0,0 l/m 10,1 km/h (2 Bft) SW 9,8 C 15,2 C
27.09.2012 19:00 14,4 C 72 % 1006,9 hPa 0,0 l/m 10,9 km/h (2 Bft) S-SW 9,4 C 14,4 C
27.09.2012 20:00 14,0 C 74 % 1007,3 hPa 0,0 l/m 7,4 km/h (2 Bft) W-SW 9,5 C 14,0 C
27.09.2012 21:00 13,4 C 77 % 1007,4 hPa 0,0 l/m 7,6 km/h (2 Bft) SW 9,5 C 13,4 C
27.09.2012 22:00 13,3 C 80 % 1008,0 hPa 0,0 l/m 12,6 km/h (3 Bft) W-SW 9,9 C 13,3 C
27.09.2012 23:00 12,4 C 83 % 1008,3 hPa 0,0 l/m 8,4 km/h (2 Bft) W-SW 9,6 C 12,4 C
28.09.2012 00:00 12,1 C 84 % 1009,0 hPa 0,0 l/m 10,5 km/h (2 Bft) W-SW 9,6 C 12,1 C
28.09.2012 01:00 12,0 C 86 % 1009,8 hPa 0,0 l/m 14,4 km/h (3 Bft) W 9,7 C 12,0 C
28.09.2012 02:00 12,3 C 86 % 1010,8 hPa 0,0 l/m 13,2 km/h (3 Bft) W-SW 10,0 C 12,3 C
28.09.2012 03:00 12,3 C 86 % 1011,6 hPa 0,0 l/m 12,4 km/h (3 Bft) W-SW 10,0 C 12,3 C
28.09.2012 04:00 12,2 C 87 % 1012,5 hPa 0,0 l/m 11,5 km/h (2 Bft) W 10,1 C 12,2 C
28.09.2012 05:00 12,1 C 88 % 1013,1 hPa 0,0 l/m 13,0 km/h (3 Bft) W-SW 10,1 C 12,1 C
28.09.2012 06:00 11,9 C 88 % 1013,8 hPa 0,0 l/m 12,0 km/h (2 Bft) W-SW 10,0 C 11,9 C
28.09.2012 07:00 11,6 C 87 % 1014,8 hPa 0,0 l/m 11,0 km/h (2 Bft) W 9,6 C 11,6 C
28.09.2012 08:00 11,8 C 87 % 1015,4 hPa 0,0 l/m 9,1 km/h (2 Bft) W-SW 9,6 C 11,8 C
28.09.2012 09:00 13,0 C 83 % 1015,9 hPa 0,0 l/m 13,5 km/h (3 Bft) W 10,1 C 13,0 C
28.09.2012 10:00 14,1 C 79 % 1016,5 hPa 0,0 l/m 10,0 km/h (2 Bft) W-SW 10,5 C 14,1 C
28.09.2012 11:00 15,4 C 71 % 1016,8 hPa 0,0 l/m 17,4 km/h (3 Bft) W-SW 10,2 C 15,4 C
28.09.2012 12:00 16,1 C 66 % 1017,0 hPa 0,0 l/m 14,1 km/h (3 Bft) W-SW 9,6 C 16,1 C
28.09.2012 13:00 17,6 C 58 % 1016,9 hPa 0,0 l/m 16,5 km/h (3 Bft) W-SW 9,3 C 17,6 C
28.09.2012 14:00 17,6 C 57 % 1016,7 hPa 0,0 l/m 12,9 km/h (3 Bft) W-SW 8,9 C 17,6 C
28.09.2012 15:00 17,1 C 57 % 1016,8 hPa 0,0 l/m 11,6 km/h (2 Bft) W 8,5 C 17,1 C
28.09.2012 16:00 16,5 C 60 % 1016,8 hPa 0,0 l/m 7,5 km/h (2 Bft) SW 8,7 C 16,5 C
28.09.2012 17:00 16,2 C 63 % 1016,4 hPa 0,0 l/m 5,1 km/h (1 Bft) S-SW 9,0 C 16,2 C
28.09.2012 18:00 15,7 C 65 % 1016,6 hPa 0,0 l/m 4,4 km/h (1 Bft) S-SW 9,2 C 15,7 C
28.09.2012 19:00 13,9 C 70 % 1016,6 hPa 0,0 l/m 1,8 km/h (1 Bft) S 8,6 C 13,9 C
28.09.2012 20:00 13,2 C 73 % 1016,6 hPa 0,0 l/m 1,8 km/h (1 Bft) S-SO 8,5 C 13,2 C
28.09.2012 21:00 11,9 C 76 % 1016,8 hPa 0,0 l/m 2,3 km/h (1 Bft) S-SO 7,8 C 11,9 C
28.09.2012 22:00 11,5 C 79 % 1016,6 hPa 0,0 l/m 2,7 km/h (1 Bft) S-SO 8,0 C 11,5 C
28.09.2012 23:00 11,1 C 80 % 1016,7 hPa 0,0 l/m 3,6 km/h (1 Bft) S-SW 7,8 C 11,1 C
29.09.2012 00:00 11,5 C 81 % 1016,4 hPa 0,0 l/m 4,8 km/h (1 Bft) S-SO 8,3 C 11,5 C
29.09.2012 01:00 11,1 C 81 % 1016,3 hPa 0,0 l/m 3,7 km/h (1 Bft) S-SO 7,9 C 11,1 C
29.09.2012 02:00 10,3 C 83 % 1015,9 hPa 0,0 l/m 5,7 km/h (1 Bft) SW 7,4 C 10,3 C
29.09.2012 03:00 9,4 C 85 % 1015,8 hPa 0,0 l/m 5,7 km/h (1 Bft) S 6,9 C 8,9 C
29.09.2012 04:00 8,9 C 86 % 1015,6 hPa 0,0 l/m 4,7 km/h (1 Bft) S-SW 6,7 C 8,6 C
29.09.2012 05:00 8,9 C 87 % 1015,0 hPa 0,0 l/m 5,6 km/h (1 Bft) S-SO 6,9 C 8,3 C
29.09.2012 06:00 9,6 C 88 % 1014,8 hPa 0,0 l/m 3,7 km/h (1 Bft) S 7,7 C 9,5 C
29.09.2012 07:00 10,0 C 88 % 1014,7 hPa 0,0 l/m 2,9 km/h (1 Bft) S-SW 8,0 C 9,9 C
29.09.2012 08:00 10,5 C 87 % 1014,9 hPa 0,0 l/m 4,0 km/h (1 Bft) S-SW 8,4 C 10,5 C
29.09.2012 09:00 12,5 C 83 % 1014,9 hPa 0,0 l/m 6,9 km/h (2 Bft) SW 9,6 C 12,5 C
29.09.2012 10:00 14,6 C 75 % 1014,8 hPa 0,0 l/m 10,0 km/h (2 Bft) SW 10,2 C 14,6 C
29.09.2012 11:00 15,8 C 71 % 1014,4 hPa 0,0 l/m 12,8 km/h (3 Bft) S-SW 10,4 C 15,8 C
29.09.2012 12:00 17,4 C 62 % 1013,9 hPa 0,0 l/m 15,9 km/h (3 Bft) W-SW 9,9 C 17,4 C
29.09.2012 13:00 17,4 C 60 % 1013,7 hPa 0,0 l/m 15,0 km/h (3 Bft) W-SW 9,5 C 17,4 C
29.09.2012 14:00 18,0 C 59 % 1013,2 hPa 0,0 l/m 17,3 km/h (3 Bft) W-SW 9,9 C 18,0 C
29.09.2012 15:00 17,1 C 61 % 1013,2 hPa 0,0 l/m 16,5 km/h (3 Bft) W-SW 9,5 C 17,1 C
29.09.2012 16:00 15,1 C 71 % 1013,7 hPa 0,0 l/m 11,3 km/h (2 Bft) W-NW 9,9 C 15,1 C
29.09.2012 17:00 15,3 C 67 % 1013,9 hPa 0,0 l/m 11,3 km/h (2 Bft) W-SW 9,3 C 15,3 C
29.09.2012 18:00 12,9 C 73 % 1014,8 hPa 0,0 l/m 10,7 km/h (2 Bft) W 8,1 C 12,9 C
29.09.2012 19:00 11,7 C 79 % 1015,2 hPa 0,0 l/m 7,4 km/h (2 Bft) W 8,2 C 11,7 C
29.09.2012 20:00 11,1 C 81 % 1015,9 hPa 0,0 l/m 6,6 km/h (2 Bft) W 7,9 C 11,1 C
29.09.2012 21:00 10,2 C 82 % 1016,6 hPa 0,0 l/m 11,9 km/h (2 Bft) W-SW 7,2 C 9,9 C
29.09.2012 22:00 9,7 C 83 % 1017,2 hPa 0,0 l/m 11,6 km/h (2 Bft) W-SW 6,9 C 8,2 C
29.09.2012 23:00 9,4 C 84 % 1017,5 hPa 0,0 l/m 11,5 km/h (2 Bft) W-SW 6,8 C 7,8 C
30.09.2012 00:00 9,2 C 84 % 1017,9 hPa 0,0 l/m 10,9 km/h (2 Bft) W 6,7 C 7,6 C
30.09.2012 01:00 8,8 C 84 % 1017,9 hPa 0,0 l/m 10,6 km/h (2 Bft) W-SW 6,3 C 7,2 C
30.09.2012 02:00 8,5 C 85 % 1018,4 hPa 0,0 l/m 9,8 km/h (2 Bft) W 6,1 C 7,1 C
30.09.2012 03:00 8,2 C 85 % 1018,7 hPa 0,0 l/m 7,7 km/h (2 Bft) W-SW 5,9 C 7,1 C
30.09.2012 04:00 7,9 C 85 % 1019,1 hPa 0,0 l/m 6,6 km/h (2 Bft) SW 5,6 C 7,0 C
30.09.2012 05:00 7,7 C 86 % 1019,4 hPa 0,0 l/m 7,6 km/h (2 Bft) W-SW 5,6 C 6,5 C
30.09.2012 06:00 7,5 C 85 % 1019,7 hPa 0,0 l/m 7,6 km/h (2 Bft) SW 5,1 C 6,1 C
30.09.2012 07:00 7,2 C 86 % 1020,3 hPa 0,0 l/m 7,0 km/h (2 Bft) W-SW 4,9 C 6,1 C
30.09.2012 08:00 8,1 C 85 % 1020,8 hPa 0,0 l/m 9,1 km/h (2 Bft) W-SW 5,7 C 6,6 C
30.09.2012 09:00 10,0 C 81 % 1021,5 hPa 0,0 l/m 10,4 km/h (2 Bft) W 6,9 C 9,4 C
30.09.2012 10:00 11,9 C 77 % 1021,8 hPa 0,0 l/m 13,1 km/h (3 Bft) W-SW 7,9 C 11,9 C
30.09.2012 11:00 13,5 C 71 % 1022,1 hPa 0,0 l/m 18,3 km/h (3 Bft) W-SW 8,4 C 13,5 C
30.09.2012 12:00 14,9 C 66 % 1022,3 hPa 0,0 l/m 11,5 km/h (2 Bft) W 8,6 C 14,9 C
30.09.2012 13:00 16,1 C 59 % 1022,2 hPa 0,0 l/m 15,6 km/h (3 Bft) W 8,1 C 16,1 C
30.09.2012 14:00 16,6 C 53 % 1021,5 hPa 0,0 l/m 15,6 km/h (3 Bft) W-SW 6,9 C 16,6 C
30.09.2012 15:00 16,9 C 53 % 1021,4 hPa 0,0 l/m 8,2 km/h (2 Bft) W-SW 7,3 C 16,9 C
30.09.2012 16:00 17,2 C 52 % 1021,2 hPa 0,0 l/m 9,2 km/h (2 Bft) W-SW 7,3 C 17,2 C
30.09.2012 17:00 16,3 C 53 % 1021,0 hPa 0,0 l/m 6,9 km/h (2 Bft) W-SW 6,8 C 16,3 C
30.09.2012 18:00 14,7 C 58 % 1020,8 hPa 0,0 l/m 2,0 km/h (1 Bft) SW 6,5 C 14,7 C
30.09.2012 19:00 12,2 C 66 % 1020,8 hPa 0,0 l/m 0,7 km/h (0 Bft) SW 5,9 C 12,2 C
30.09.2012 20:00 10,5 C 72 % 1020,9 hPa 0,0 l/m 1,4 km/h (1 Bft) SW 5,7 C 10,5 C
30.09.2012 21:00 9,7 C 75 % 1021,2 hPa 0,0 l/m 1,1 km/h (1 Bft) S-SO 5,5 C 9,7 C
30.09.2012 22:00 8,7 C 77 % 1021,2 hPa 0,0 l/m 0,3 km/h (0 Bft) S-SO 4,9 C 8,7 C
30.09.2012 23:00 7,9 C 81 % 1020,9 hPa 0,0 l/m 0,2 km/h (0 Bft) S-SO 4,9 C 7,9 C
Min-Datum _ 30.09.12 30.09.12 24.09.12 - 24.09.12 - 30.09.12 30.09.12
_ Min-Zeit 07:31 15:56 20:11 - 01:26 - 22:56 08:11
Minimum _ 7,1 C 51 % 997,7 hPa - 0,0 km/h (0 Bft) - 4,7 C 5,1 C
Max-Datum _ 25.09.12 26.09.12 30.09.12 27.09.12 30.09.12 - 26.09.12 25.09.12
_ Max-Zeit 14:31 08:26 12:06 06:11 14:16 - 14:46 14:31
Maximum _ 21,4 C 91 % 1022,4 hPa 3,6 l/m 30,6 km/h
W-SW (5 Bft)
- 14,5 C 21,4 C
Durchschnitt _ 13,3 C 78 % 1009,2 hPa #16,1 l/m 7,5 km/h (2 Bft) W-SW 9,4 C 13,1 C
(c) by David Heller